sensor_id;sensor_type;location;lat;lon;timestamp;pressure;altitude;pressure_sealevel;temperature;humidity
50103;BME280;35993;52.604;10.078;2023-06-14T00:01:47;101298.50;;;18.13;52.83
50103;BME280;35993;52.604;10.078;2023-06-14T00:04:13;101304.09;;;18.01;53.32
50103;BME280;35993;52.604;10.078;2023-06-14T00:06:42;101305.19;;;18.00;53.58
50103;BME280;35993;52.604;10.078;2023-06-14T00:09:11;101306.25;;;17.99;53.63
50103;BME280;35993;52.604;10.078;2023-06-14T00:11:43;101309.41;;;17.91;53.89
50103;BME280;35993;52.604;10.078;2023-06-14T00:14:09;101300.69;;;17.94;53.72
50103;BME280;35993;52.604;10.078;2023-06-14T00:16:34;101312.53;;;17.94;53.67
50103;BME280;35993;52.604;10.078;2023-06-14T00:19:03;101302.38;;;17.95;53.58
50103;BME280;35993;52.604;10.078;2023-06-14T00:21:30;101306.41;;;17.92;53.70
50103;BME280;35993;52.604;10.078;2023-06-14T00:23:57;101315.84;;;17.96;53.49
50103;BME280;35993;52.604;10.078;2023-06-14T00:26:23;101312.91;;;17.86;53.98
50103;BME280;35993;52.604;10.078;2023-06-14T00:28:49;101309.00;;;17.82;54.09
50103;BME280;35993;52.604;10.078;2023-06-14T00:31:15;101311.41;;;17.78;54.14
50103;BME280;35993;52.604;10.078;2023-06-14T00:33:40;101312.75;;;17.76;53.86
50103;BME280;35993;52.604;10.078;2023-06-14T00:36:06;101309.94;;;17.71;54.05
50103;BME280;35993;52.604;10.078;2023-06-14T00:38:31;101319.50;;;17.68;54.08
50103;BME280;35993;52.604;10.078;2023-06-14T00:40:57;101312.84;;;17.64;54.23
50103;BME280;35993;52.604;10.078;2023-06-14T00:43:22;101317.25;;;17.65;54.10
50103;BME280;35993;52.604;10.078;2023-06-14T00:45:48;101326.84;;;17.62;54.06
50103;BME280;35993;52.604;10.078;2023-06-14T00:48:15;101324.81;;;17.58;54.23
50103;BME280;35993;52.604;10.078;2023-06-14T00:50:43;101317.66;;;17.57;54.09
50103;BME280;35993;52.604;10.078;2023-06-14T00:53:12;101329.31;;;17.47;54.38
50103;BME280;35993;52.604;10.078;2023-06-14T00:55:38;101322.97;;;17.46;54.42
50103;BME280;35993;52.604;10.078;2023-06-14T00:58:03;101319.91;;;17.43;54.46
50103;BME280;35993;52.604;10.078;2023-06-14T01:00:29;101321.47;;;17.39;54.55
50103;BME280;35993;52.604;10.078;2023-06-14T01:02:55;101325.81;;;17.34;54.71
50103;BME280;35993;52.604;10.078;2023-06-14T01:05:20;101319.97;;;17.31;54.71
50103;BME280;35993;52.604;10.078;2023-06-14T01:07:58;101326.78;;;17.28;54.95
50103;BME280;35993;52.604;10.078;2023-06-14T01:10:37;101330.22;;;17.35;54.96
50103;BME280;35993;52.604;10.078;2023-06-14T01:13:16;101326.78;;;17.28;55.21
50103;BME280;35993;52.604;10.078;2023-06-14T01:15:46;101324.69;;;17.18;55.44
50103;BME280;35993;52.604;10.078;2023-06-14T01:18:12;101329.75;;;17.10;55.72
50103;BME280;35993;52.604;10.078;2023-06-14T01:20:44;101330.75;;;17.03;55.98
50103;BME280;35993;52.604;10.078;2023-06-14T01:23:17;101324.09;;;16.87;56.41
50103;BME280;35993;52.604;10.078;2023-06-14T01:25:43;101332.53;;;16.98;56.14
50103;BME280;35993;52.604;10.078;2023-06-14T01:28:11;101330.03;;;16.96;56.41
50103;BME280;35993;52.604;10.078;2023-06-14T01:30:42;101326.94;;;16.93;56.59
50103;BME280;35993;52.604;10.078;2023-06-14T01:33:14;101327.91;;;16.86;56.80
50103;BME280;35993;52.604;10.078;2023-06-14T01:35:46;101328.53;;;16.77;57.22
50103;BME280;35993;52.604;10.078;2023-06-14T01:38:13;101333.88;;;16.83;57.21
50103;BME280;35993;52.604;10.078;2023-06-14T01:40:40;101338.19;;;16.79;57.22
50103;BME280;35993;52.604;10.078;2023-06-14T01:43:07;101339.41;;;16.71;57.64
50103;BME280;35993;52.604;10.078;2023-06-14T01:45:34;101343.13;;;16.65;57.85
50103;BME280;35993;52.604;10.078;2023-06-14T01:48:01;101336.94;;;16.58;58.54
50103;BME280;35993;52.604;10.078;2023-06-14T01:50:30;101338.50;;;16.54;58.28
50103;BME280;35993;52.604;10.078;2023-06-14T01:52:57;101335.28;;;16.45;58.63
50103;BME280;35993;52.604;10.078;2023-06-14T01:55:23;101337.22;;;16.33;59.12
50103;BME280;35993;52.604;10.078;2023-06-14T01:57:50;101328.28;;;16.37;58.93
50103;BME280;35993;52.604;10.078;2023-06-14T02:00:17;101336.03;;;16.29;59.41
50103;BME280;35993;52.604;10.078;2023-06-14T02:02:44;101334.50;;;16.21;59.91
50103;BME280;35993;52.604;10.078;2023-06-14T02:05:09;101337.97;;;16.16;60.04
50103;BME280;35993;52.604;10.078;2023-06-14T02:07:36;101334.63;;;16.14;60.03
50103;BME280;35993;52.604;10.078;2023-06-14T02:10:03;101338.78;;;16.17;59.98
50103;BME280;35993;52.604;10.078;2023-06-14T02:12:28;101337.00;;;16.11;60.24
50103;BME280;35993;52.604;10.078;2023-06-14T02:14:57;101343.19;;;16.06;60.47
50103;BME280;35993;52.604;10.078;2023-06-14T02:17:23;101338.91;;;15.98;60.70
50103;BME280;35993;52.604;10.078;2023-06-14T02:19:50;101338.44;;;16.01;60.50
50103;BME280;35993;52.604;10.078;2023-06-14T02:22:16;101334.50;;;15.97;60.78
50103;BME280;35993;52.604;10.078;2023-06-14T02:24:42;101336.66;;;15.95;60.84
50103;BME280;35993;52.604;10.078;2023-06-14T02:27:09;101330.47;;;16.00;60.69
50103;BME280;35993;52.604;10.078;2023-06-14T02:29:37;101328.66;;;16.05;60.50
50103;BME280;35993;52.604;10.078;2023-06-14T02:32:04;101331.66;;;16.04;60.78
50103;BME280;35993;52.604;10.078;2023-06-14T02:34:30;101332.84;;;15.96;60.87
50103;BME280;35993;52.604;10.078;2023-06-14T02:36:55;101337.47;;;15.84;61.40
50103;BME280;35993;52.604;10.078;2023-06-14T02:39:22;101344.00;;;15.83;61.29
50103;BME280;35993;52.604;10.078;2023-06-14T02:41:51;101342.41;;;15.75;61.86
50103;BME280;35993;52.604;10.078;2023-06-14T02:44:18;101339.81;;;15.68;62.16
50103;BME280;35993;52.604;10.078;2023-06-14T02:46:43;101348.13;;;15.62;62.44
50103;BME280;35993;52.604;10.078;2023-06-14T02:49:11;101355.16;;;15.57;62.74
50103;BME280;35993;52.604;10.078;2023-06-14T02:51:37;101351.56;;;15.57;62.82
50103;BME280;35993;52.604;10.078;2023-06-14T02:54:03;101350.81;;;15.50;63.37
50103;BME280;35993;52.604;10.078;2023-06-14T02:56:29;101350.81;;;15.50;63.11
50103;BME280;35993;52.604;10.078;2023-06-14T02:58:55;101352.88;;;15.54;62.93
50103;BME280;35993;52.604;10.078;2023-06-14T03:01:20;101352.16;;;15.59;62.91
50103;BME280;35993;52.604;10.078;2023-06-14T03:03:47;101354.44;;;15.62;62.67
50103;BME280;35993;52.604;10.078;2023-06-14T03:06:13;101355.72;;;15.60;62.49
50103;BME280;35993;52.604;10.078;2023-06-14T03:08:40;101370.59;;;15.52;63.02
50103;BME280;35993;52.604;10.078;2023-06-14T03:11:12;101368.88;;;15.39;63.50
50103;BME280;35993;52.604;10.078;2023-06-14T03:13:38;101376.72;;;15.35;63.90
50103;BME280;35993;52.604;10.078;2023-06-14T03:16:05;101372.91;;;15.36;63.64
50103;BME280;35993;52.604;10.078;2023-06-14T03:18:34;101377.78;;;15.34;63.91
50103;BME280;35993;52.604;10.078;2023-06-14T03:21:02;101386.94;;;15.28;64.45
50103;BME280;35993;52.604;10.078;2023-06-14T03:23:29;101382.28;;;15.29;66.33
50103;BME280;35993;52.604;10.078;2023-06-14T03:25:54;101393.53;;;15.20;66.92
50103;BME280;35993;52.604;10.078;2023-06-14T03:28:21;101394.50;;;15.14;66.89
50103;BME280;35993;52.604;10.078;2023-06-14T03:30:46;101393.63;;;15.14;67.02
50103;BME280;35993;52.604;10.078;2023-06-14T03:33:13;101397.81;;;15.16;66.32
50103;BME280;35993;52.604;10.078;2023-06-14T03:35:40;101394.84;;;15.18;66.24
50103;BME280;35993;52.604;10.078;2023-06-14T03:38:05;101393.34;;;15.22;65.98
50103;BME280;35993;52.604;10.078;2023-06-14T03:40:31;101403.66;;;15.20;66.48
50103;BME280;35993;52.604;10.078;2023-06-14T03:43:01;101403.13;;;15.11;66.26
50103;BME280;35993;52.604;10.078;2023-06-14T03:45:27;101403.63;;;15.08;66.54
50103;BME280;35993;52.604;10.078;2023-06-14T03:47:53;101412.19;;;15.12;65.94
50103;BME280;35993;52.604;10.078;2023-06-14T03:50:19;101422.66;;;15.15;66.22
50103;BME280;35993;52.604;10.078;2023-06-14T03:52:48;101415.81;;;15.24;65.48
50103;BME280;35993;52.604;10.078;2023-06-14T03:55:15;101413.97;;;15.18;65.62
50103;BME280;35993;52.604;10.078;2023-06-14T03:57:41;101426.38;;;15.20;65.69
50103;BME280;35993;52.604;10.078;2023-06-14T04:00:11;101430.03;;;15.14;66.07
50103;BME280;35993;52.604;10.078;2023-06-14T04:02:40;101430.88;;;15.15;66.36
50103;BME280;35993;52.604;10.078;2023-06-14T04:05:07;101435.03;;;15.17;66.18
50103;BME280;35993;52.604;10.078;2023-06-14T04:07:36;101433.22;;;15.11;66.84
50103;BME280;35993;52.604;10.078;2023-06-14T04:10:12;101431.94;;;15.14;66.79
50103;BME280;35993;52.604;10.078;2023-06-14T04:12:38;101431.38;;;15.23;66.40
50103;BME280;35993;52.604;10.078;2023-06-14T04:15:04;101430.56;;;15.23;66.42
50103;BME280;35993;52.604;10.078;2023-06-14T04:17:32;101437.91;;;15.22;66.56
50103;BME280;35993;52.604;10.078;2023-06-14T04:20:02;101434.66;;;15.32;66.03
50103;BME280;35993;52.604;10.078;2023-06-14T04:22:30;101427.41;;;15.38;65.65
50103;BME280;35993;52.604;10.078;2023-06-14T04:24:58;101434.91;;;15.43;65.97
50103;BME280;35993;52.604;10.078;2023-06-14T04:27:26;101434.13;;;15.54;65.74
50103;BME280;35993;52.604;10.078;2023-06-14T04:29:53;101443.69;;;15.63;65.56
50103;BME280;35993;52.604;10.078;2023-06-14T04:32:24;101441.75;;;15.82;65.19
50103;BME280;35993;52.604;10.078;2023-06-14T04:34:56;101436.41;;;15.99;64.70
50103;BME280;35993;52.604;10.078;2023-06-14T04:37:23;101443.31;;;16.14;63.87
50103;BME280;35993;52.604;10.078;2023-06-14T04:39:49;101442.19;;;16.21;63.50
50103;BME280;35993;52.604;10.078;2023-06-14T04:42:18;101444.66;;;16.35;63.49
50103;BME280;35993;52.604;10.078;2023-06-14T04:44:46;101444.19;;;16.50;63.44
50103;BME280;35993;52.604;10.078;2023-06-14T04:47:13;101446.00;;;16.56;62.80
50103;BME280;35993;52.604;10.078;2023-06-14T04:49:41;101447.16;;;16.60;62.76
50103;BME280;35993;52.604;10.078;2023-06-14T04:52:07;101449.53;;;16.68;62.33
50103;BME280;35993;52.604;10.078;2023-06-14T04:54:39;101453.81;;;16.76;62.52
50103;BME280;35993;52.604;10.078;2023-06-14T04:57:09;101450.97;;;16.95;62.29
50103;BME280;35993;52.604;10.078;2023-06-14T04:59:40;101448.53;;;17.10;61.60
50103;BME280;35993;52.604;10.078;2023-06-14T05:02:05;101447.56;;;17.16;61.22
50103;BME280;35993;52.604;10.078;2023-06-14T05:04:33;101457.19;;;17.31;61.16
50103;BME280;35993;52.604;10.078;2023-06-14T05:06:59;101447.34;;;17.47;60.70
50103;BME280;35993;52.604;10.078;2023-06-14T05:09:24;101451.00;;;17.52;60.23
50103;BME280;35993;52.604;10.078;2023-06-14T05:11:50;101453.16;;;17.50;59.98
50103;BME280;35993;52.604;10.078;2023-06-14T05:14:16;101455.69;;;17.52;59.82
50103;BME280;35993;52.604;10.078;2023-06-14T05:16:42;101461.16;;;17.52;59.46
50103;BME280;35993;52.604;10.078;2023-06-14T05:19:08;101453.13;;;17.62;59.60
50103;BME280;35993;52.604;10.078;2023-06-14T05:21:33;101465.28;;;17.83;59.48
50103;BME280;35993;52.604;10.078;2023-06-14T05:24:00;101460.59;;;17.96;58.75
50103;BME280;35993;52.604;10.078;2023-06-14T05:26:26;101468.09;;;18.00;58.69
50103;BME280;35993;52.604;10.078;2023-06-14T05:28:57;101464.84;;;18.04;58.23
50103;BME280;35993;52.604;10.078;2023-06-14T05:31:24;101473.84;;;17.99;58.37
50103;BME280;35993;52.604;10.078;2023-06-14T05:33:51;101468.19;;;18.06;58.74
50103;BME280;35993;52.604;10.078;2023-06-14T05:36:17;101464.84;;;18.21;57.89
50103;BME280;35993;52.604;10.078;2023-06-14T05:38:42;101468.63;;;18.31;57.88
50103;BME280;35993;52.604;10.078;2023-06-14T05:41:08;101466.19;;;18.35;57.39
50103;BME280;35993;52.604;10.078;2023-06-14T05:43:33;101470.94;;;18.23;57.41
50103;BME280;35993;52.604;10.078;2023-06-14T05:45:59;101473.44;;;18.24;57.27
50103;BME280;35993;52.604;10.078;2023-06-14T05:48:24;101479.06;;;18.51;56.68
50103;BME280;35993;52.604;10.078;2023-06-14T05:50:50;101483.06;;;18.61;56.79
50103;BME280;35993;52.604;10.078;2023-06-14T05:53:15;101479.25;;;18.45;56.06
50103;BME280;35993;52.604;10.078;2023-06-14T05:55:41;101485.91;;;18.49;56.06
50103;BME280;35993;52.604;10.078;2023-06-14T05:58:06;101486.31;;;18.58;55.94
50103;BME280;35993;52.604;10.078;2023-06-14T06:00:32;101483.06;;;18.61;55.73
50103;BME280;35993;52.604;10.078;2023-06-14T06:02:57;101486.56;;;18.56;55.66
50103;BME280;35993;52.604;10.078;2023-06-14T06:05:23;101488.13;;;18.69;55.50
50103;BME280;35993;52.604;10.078;2023-06-14T06:07:49;101490.13;;;18.74;55.80
50103;BME280;35993;52.604;10.078;2023-06-14T06:10:15;101482.22;;;18.77;55.29
50103;BME280;35993;52.604;10.078;2023-06-14T06:12:44;101483.88;;;18.95;55.29
50103;BME280;35993;52.604;10.078;2023-06-14T06:15:10;101481.25;;;19.06;54.80
50103;BME280;35993;52.604;10.078;2023-06-14T06:17:39;101473.50;;;19.25;54.40
50103;BME280;35993;52.604;10.078;2023-06-14T06:20:05;101483.53;;;19.14;54.41
50103;BME280;35993;52.604;10.078;2023-06-14T06:22:36;101488.91;;;19.26;53.91
50103;BME280;35993;52.604;10.078;2023-06-14T06:25:01;101487.91;;;19.10;54.37
50103;BME280;35993;52.604;10.078;2023-06-14T06:27:28;101487.75;;;19.22;54.21
50103;BME280;35993;52.604;10.078;2023-06-14T06:29:53;101488.75;;;19.32;53.72
50103;BME280;35993;52.604;10.078;2023-06-14T06:32:19;101480.84;;;19.19;53.76
50103;BME280;35993;52.604;10.078;2023-06-14T06:34:44;101489.50;;;19.28;54.05
50103;BME280;35993;52.604;10.078;2023-06-14T06:37:10;101492.63;;;19.37;53.60
50103;BME280;35993;52.604;10.078;2023-06-14T06:39:36;101486.97;;;19.48;53.55
50103;BME280;35993;52.604;10.078;2023-06-14T06:42:02;101489.34;;;19.40;53.18
50103;BME280;35993;52.604;10.078;2023-06-14T06:44:34;101484.22;;;19.48;52.85
50103;BME280;35993;52.604;10.078;2023-06-14T06:47:00;101488.91;;;19.48;52.30
50103;BME280;35993;52.604;10.078;2023-06-14T06:49:26;101498.38;;;19.57;51.67
50103;BME280;35993;52.604;10.078;2023-06-14T06:52:03;101495.56;;;19.52;51.83
50103;BME280;35993;52.604;10.078;2023-06-14T06:54:29;101496.84;;;19.44;51.40
50103;BME280;35993;52.604;10.078;2023-06-14T06:56:54;101506.13;;;19.38;51.71
50103;BME280;35993;52.604;10.078;2023-06-14T06:59:20;101502.34;;;19.44;51.51
50103;BME280;35993;52.604;10.078;2023-06-14T07:01:46;101502.94;;;19.74;51.01
50103;BME280;35993;52.604;10.078;2023-06-14T07:04:12;101495.13;;;19.88;50.55
50103;BME280;35993;52.604;10.078;2023-06-14T07:06:38;101492.53;;;20.03;49.81
50103;BME280;35993;52.604;10.078;2023-06-14T07:09:04;101492.69;;;19.91;49.41
50103;BME280;35993;52.604;10.078;2023-06-14T07:11:32;101503.13;;;19.89;49.51
50103;BME280;35993;52.604;10.078;2023-06-14T07:13:57;101487.13;;;19.64;48.91
50103;BME280;35993;52.604;10.078;2023-06-14T07:16:23;101505.66;;;19.69;48.95
50103;BME280;35993;52.604;10.078;2023-06-14T07:18:48;101496.69;;;19.78;49.01
50103;BME280;35993;52.604;10.078;2023-06-14T07:21:14;101495.56;;;19.79;48.84
50103;BME280;35993;52.604;10.078;2023-06-14T07:23:39;101495.16;;;19.65;48.54
50103;BME280;35993;52.604;10.078;2023-06-14T07:26:05;101488.31;;;19.68;48.48
50103;BME280;35993;52.604;10.078;2023-06-14T07:28:31;101495.91;;;19.83;48.20
50103;BME280;35993;52.604;10.078;2023-06-14T07:30:56;101501.28;;;19.73;48.67
50103;BME280;35993;52.604;10.078;2023-06-14T07:33:22;101486.38;;;19.96;48.81
50103;BME280;35993;52.604;10.078;2023-06-14T07:35:48;101485.84;;;20.32;48.38
50103;BME280;35993;52.604;10.078;2023-06-14T07:38:14;101483.28;;;20.57;47.35
50103;BME280;35993;52.604;10.078;2023-06-14T07:40:40;101478.00;;;20.51;46.64
50103;BME280;35993;52.604;10.078;2023-06-14T07:43:05;101488.97;;;20.40;46.09
50103;BME280;35993;52.604;10.078;2023-06-14T07:45:31;101470.78;;;20.44;45.91
50103;BME280;35993;52.604;10.078;2023-06-14T07:47:57;101479.16;;;20.60;45.98
50103;BME280;35993;52.604;10.078;2023-06-14T07:50:23;101474.31;;;20.72;46.00
50103;BME280;35993;52.604;10.078;2023-06-14T07:52:49;101483.88;;;20.65;45.61
50103;BME280;35993;52.604;10.078;2023-06-14T07:55:14;101478.28;;;20.49;46.21
50103;BME280;35993;52.604;10.078;2023-06-14T07:57:40;101477.16;;;20.45;46.47
50103;BME280;35993;52.604;10.078;2023-06-14T08:00:06;101479.13;;;20.55;46.29
50103;BME280;35993;52.604;10.078;2023-06-14T08:02:37;101480.31;;;20.64;46.28
50103;BME280;35993;52.604;10.078;2023-06-14T08:05:03;101485.63;;;20.71;46.18
50103;BME280;35993;52.604;10.078;2023-06-14T08:07:29;101474.66;;;20.86;46.06
50103;BME280;35993;52.604;10.078;2023-06-14T08:09:54;101484.81;;;20.81;46.28
50103;BME280;35993;52.604;10.078;2023-06-14T08:12:20;101477.50;;;21.02;46.33
50103;BME280;35993;52.604;10.078;2023-06-14T08:14:46;101472.03;;;21.12;46.20
50103;BME280;35993;52.604;10.078;2023-06-14T08:17:11;101472.00;;;21.07;46.35
50103;BME280;35993;52.604;10.078;2023-06-14T08:19:37;101476.75;;;21.17;45.81
50103;BME280;35993;52.604;10.078;2023-06-14T08:22:03;101479.16;;;20.98;45.88
50103;BME280;35993;52.604;10.078;2023-06-14T08:24:29;101474.75;;;21.02;46.19
50103;BME280;35993;52.604;10.078;2023-06-14T08:26:54;101481.47;;;21.32;45.92
50103;BME280;35993;52.604;10.078;2023-06-14T08:29:20;101480.22;;;21.55;45.50
50103;BME280;35993;52.604;10.078;2023-06-14T08:31:46;101469.72;;;21.57;45.37
50103;BME280;35993;52.604;10.078;2023-06-14T08:34:12;101472.19;;;21.64;45.38
50103;BME280;35993;52.604;10.078;2023-06-14T08:36:37;101473.81;;;21.54;45.39
50103;BME280;35993;52.604;10.078;2023-06-14T08:39:03;101473.03;;;21.59;45.12
50103;BME280;35993;52.604;10.078;2023-06-14T08:41:29;101473.88;;;21.75;45.35
50103;BME280;35993;52.604;10.078;2023-06-14T08:43:56;101476.34;;;21.71;44.71
50103;BME280;35993;52.604;10.078;2023-06-14T08:46:25;101476.09;;;21.68;44.69
50103;BME280;35993;52.604;10.078;2023-06-14T08:48:53;101468.38;;;21.85;44.14
50103;BME280;35993;52.604;10.078;2023-06-14T08:51:22;101460.63;;;21.82;43.88
50103;BME280;35993;52.604;10.078;2023-06-14T08:53:53;101481.09;;;21.97;44.07
50103;BME280;35993;52.604;10.078;2023-06-14T08:56:19;101468.94;;;21.82;44.13
50103;BME280;35993;52.604;10.078;2023-06-14T08:58:46;101473.34;;;21.88;44.12
50103;BME280;35993;52.604;10.078;2023-06-14T09:01:13;101475.56;;;22.12;44.11
50103;BME280;35993;52.604;10.078;2023-06-14T09:03:43;101473.09;;;22.16;44.11
50103;BME280;35993;52.604;10.078;2023-06-14T09:06:10;101475.56;;;22.07;44.40
50103;BME280;35993;52.604;10.078;2023-06-14T09:08:43;101470.03;;;22.12;44.44
50103;BME280;35993;52.604;10.078;2023-06-14T09:11:11;101469.75;;;22.34;43.76
50103;BME280;35993;52.604;10.078;2023-06-14T09:13:38;101474.47;;;22.49;43.75
50103;BME280;35993;52.604;10.078;2023-06-14T09:16:05;101474.22;;;22.46;43.76
50103;BME280;35993;52.604;10.078;2023-06-14T09:18:46;101473.34;;;22.50;43.85
50103;BME280;35993;52.604;10.078;2023-06-14T09:21:17;101476.69;;;22.42;43.48
50103;BME280;35993;52.604;10.078;2023-06-14T09:23:47;101480.25;;;22.58;43.42
50103;BME280;35993;52.604;10.078;2023-06-14T09:26:14;101470.84;;;22.64;43.21
50103;BME280;35993;52.604;10.078;2023-06-14T09:28:48;101482.16;;;22.73;43.53
50103;BME280;35993;52.604;10.078;2023-06-14T09:31:15;101492.97;;;22.64;43.56
50103;BME280;35993;52.604;10.078;2023-06-14T09:33:44;101486.63;;;22.69;43.31
50103;BME280;35993;52.604;10.078;2023-06-14T09:36:18;101502.06;;;22.85;43.35
50103;BME280;35993;52.604;10.078;2023-06-14T09:39:00;101491.88;;;22.60;43.28
50103;BME280;35993;52.604;10.078;2023-06-14T09:44:03;101485.78;;;22.58;43.82
50103;BME280;35993;52.604;10.078;2023-06-14T09:46:29;101497.97;;;22.41;44.30
50103;BME280;35993;52.604;10.078;2023-06-14T09:48:59;101489.13;;;22.50;43.83
50103;BME280;35993;52.604;10.078;2023-06-14T09:51:25;101489.66;;;22.31;44.33
50103;BME280;35993;52.604;10.078;2023-06-14T09:53:52;101473.06;;;22.57;43.92
50103;BME280;35993;52.604;10.078;2023-06-14T09:56:34;101470.03;;;22.58;43.65
50103;BME280;35993;52.604;10.078;2023-06-14T09:59:04;101483.47;;;22.96;43.40
50103;BME280;35993;52.604;10.078;2023-06-14T10:01:31;101480.38;;;23.08;43.15
50103;BME280;35993;52.604;10.078;2023-06-14T10:04:07;101478.47;;;23.08;42.79
50103;BME280;35993;52.604;10.078;2023-06-14T10:06:36;101478.78;;;22.91;43.41
50103;BME280;35993;52.604;10.078;2023-06-14T10:09:04;101483.84;;;22.69;44.17
50103;BME280;35993;52.604;10.078;2023-06-14T10:11:31;101478.59;;;22.47;44.54
50103;BME280;35993;52.604;10.078;2023-06-14T10:13:57;101479.75;;;22.40;44.60
50103;BME280;35993;52.604;10.078;2023-06-14T10:16:38;101482.22;;;22.11;45.16
50103;BME280;35993;52.604;10.078;2023-06-14T10:22:10;101483.56;;;21.98;45.41
50103;BME280;35993;52.604;10.078;2023-06-14T10:24:43;101473.66;;;22.13;45.35
50103;BME280;35993;52.604;10.078;2023-06-14T10:27:13;101470.31;;;22.31;45.07
50103;BME280;35993;52.604;10.078;2023-06-14T10:32:22;101473.34;;;22.50;45.23
50103;BME280;35993;52.604;10.078;2023-06-14T10:34:56;101474.75;;;22.37;45.16
50103;BME280;35993;52.604;10.078;2023-06-14T10:37:22;101473.38;;;22.19;45.52
50103;BME280;35993;52.604;10.078;2023-06-14T10:39:50;101477.22;;;22.08;45.59
50103;BME280;35993;52.604;10.078;2023-06-14T10:42:16;101483.84;;;22.02;45.94
50103;BME280;35993;52.604;10.078;2023-06-14T10:44:51;101468.41;;;22.06;45.59
50103;BME280;35993;52.604;10.078;2023-06-14T10:50:11;101470.59;;;22.09;46.11
50103;BME280;35993;52.604;10.078;2023-06-14T10:52:41;101463.41;;;22.08;45.88
50103;BME280;35993;52.604;10.078;2023-06-14T10:55:08;101459.81;;;22.13;45.64
50103;BME280;35993;52.604;10.078;2023-06-14T10:57:36;101453.72;;;22.21;45.81
50103;BME280;35993;52.604;10.078;2023-06-14T11:00:03;101463.13;;;22.20;45.57
50103;BME280;35993;52.604;10.078;2023-06-14T11:02:59;101455.69;;;22.10;45.62
50103;BME280;35993;52.604;10.078;2023-06-14T11:05:30;101465.06;;;22.09;45.89
50103;BME280;35993;52.604;10.078;2023-06-14T11:10:41;101463.97;;;22.41;45.01
50103;BME280;35993;52.604;10.078;2023-06-14T11:13:07;101452.84;;;22.72;44.16
50103;BME280;35993;52.604;10.078;2023-06-14T11:15:37;101459.47;;;22.66;44.14
50103;BME280;35993;52.604;10.078;2023-06-14T11:18:05;101445.22;;;23.08;43.23
50103;BME280;35993;52.604;10.078;2023-06-14T11:20:33;101455.72;;;23.22;43.43
50103;BME280;35993;52.604;10.078;2023-06-14T11:22:59;101446.28;;;23.23;43.25
50103;BME280;35993;52.604;10.078;2023-06-14T11:25:26;101451.31;;;23.16;43.24
50103;BME280;35993;52.604;10.078;2023-06-14T11:27:54;101439.13;;;23.12;43.24
50103;BME280;35993;52.604;10.078;2023-06-14T11:30:19;101424.72;;;23.65;42.81
50103;BME280;35993;52.604;10.078;2023-06-14T11:32:49;101428.06;;;23.56;42.77
50103;BME280;35993;52.604;10.078;2023-06-14T11:35:16;101423.69;;;22.95;42.58
50103;BME280;35993;52.604;10.078;2023-06-14T11:37:42;101430.66;;;22.82;42.91
50103;BME280;35993;52.604;10.078;2023-06-14T11:40:10;101436.47;;;22.86;43.09
50103;BME280;35993;52.604;10.078;2023-06-14T11:42:38;101429.00;;;22.76;42.80
50103;BME280;35993;52.604;10.078;2023-06-14T11:45:07;101419.88;;;22.81;42.03
50103;BME280;35993;52.604;10.078;2023-06-14T11:47:34;101410.06;;;23.04;41.44
50103;BME280;35993;52.604;10.078;2023-06-14T11:50:02;101403.34;;;23.26;41.11
50103;BME280;35993;52.604;10.078;2023-06-14T11:52:28;101406.13;;;23.26;41.30
50103;BME280;35993;52.604;10.078;2023-06-14T11:54:54;101406.88;;;23.42;41.22
50103;BME280;35993;52.604;10.078;2023-06-14T11:57:20;101398.72;;;23.90;40.83
50103;BME280;35993;52.604;10.078;2023-06-14T11:59:46;101393.00;;;24.40;40.25
50103;BME280;35993;52.604;10.078;2023-06-14T12:02:15;101394.75;;;24.55;39.94
50103;BME280;35993;52.604;10.078;2023-06-14T12:04:42;101401.94;;;24.32;40.24
50103;BME280;35993;52.604;10.078;2023-06-14T12:07:09;101395.91;;;24.00;40.92
50103;BME280;35993;52.604;10.078;2023-06-14T12:09:36;101400.03;;;23.68;40.89
50103;BME280;35993;52.604;10.078;2023-06-14T12:12:02;101403.44;;;23.55;41.37
50103;BME280;35993;52.604;10.078;2023-06-14T12:14:30;101398.25;;;23.43;41.58
50103;BME280;35993;52.604;10.078;2023-06-14T12:17:04;101399.19;;;23.28;41.41
50103;BME280;35993;52.604;10.078;2023-06-14T12:19:41;101393.13;;;23.21;41.51
50103;BME280;35993;52.604;10.078;2023-06-14T12:22:09;101392.56;;;23.64;40.84
50103;BME280;35993;52.604;10.078;2023-06-14T12:24:35;101384.28;;;23.59;40.79
50103;BME280;35993;52.604;10.078;2023-06-14T12:27:01;101379.94;;;23.47;40.74
50103;BME280;35993;52.604;10.078;2023-06-14T12:29:30;101391.34;;;23.40;40.93
50103;BME280;35993;52.604;10.078;2023-06-14T12:31:56;101396.09;;;23.30;40.92
50103;BME280;35993;52.604;10.078;2023-06-14T12:34:26;101390.00;;;23.33;41.18
50103;BME280;35993;52.604;10.078;2023-06-14T12:36:53;101389.19;;;23.27;41.01
50103;BME280;35993;52.604;10.078;2023-06-14T12:39:19;101395.34;;;23.19;40.71
50103;BME280;35993;52.604;10.078;2023-06-14T12:41:44;101407.25;;;23.14;41.50
50103;BME280;35993;52.604;10.078;2023-06-14T12:44:11;101396.19;;;23.19;41.17
50103;BME280;35993;52.604;10.078;2023-06-14T12:46:37;101405.28;;;23.30;40.86
50103;BME280;35993;52.604;10.078;2023-06-14T12:49:05;101399.72;;;23.30;40.86
50103;BME280;35993;52.604;10.078;2023-06-14T12:51:30;101390.88;;;23.28;40.81
50103;BME280;35993;52.604;10.078;2023-06-14T12:53:56;101395.00;;;23.31;40.91
50103;BME280;35993;52.604;10.078;2023-06-14T12:56:21;101395.03;;;23.26;40.90